Time;durP1;ratioP1;P1;durP2;ratioP2;P2;SDS_P1;SDS_P2;PMS_P1;PMS_P2;Temp;Humidity;BMP_temperature;BMP_pressure;BME280_temperature;BME280_humidity;BME280_pressure;Samples;Min_cycle;Max_cycle;Signal;HPM_P1;HPM_P2
2021/08/10 00:01:28;;;;;;;1.55;0.75;;;;;;;22.61;54.75;101494.63;5035981;28;20439;-74
2021/08/10 00:03:54;;;;;;;1.35;0.73;;;;;;;22.60;54.58;101491.13;5036029;28;20438;-74
2021/08/10 00:06:19;;;;;;;1.85;0.80;;;;;;;22.57;54.60;101479.75;5019568;28;20116;-74
2021/08/10 00:08:45;;;;;;;1.35;0.95;;;;;;;22.59;54.82;101481.47;5019797;28;20037;-74
2021/08/10 00:11:10;;;;;;;1.35;0.80;;;;;;;22.58;54.64;101484.16;5036965;28;20072;-74
2021/08/10 00:13:36;;;;;;;1.27;0.80;;;;;;;22.59;54.62;101481.47;5037414;28;20085;-74
2021/08/10 00:16:02;;;;;;;0.75;0.70;;;;;;;22.56;54.58;101478.00;5035897;28;20021;-73
2021/08/10 00:18:27;;;;;;;1.92;1.10;;;;;;;22.57;54.61;101469.22;5035552;28;20026;-74
2021/08/10 00:20:52;;;;;;;2.58;1.00;;;;;;;22.57;54.73;101478.00;5019126;28;20033;-74
2021/08/10 00:23:18;;;;;;;1.42;0.75;;;;;;;22.55;54.70;101474.50;5037068;28;20025;-74
2021/08/10 00:25:43;;;;;;;2.88;1.80;;;;;;;22.56;54.53;101475.38;5035726;28;20032;-74
2021/08/10 00:28:09;;;;;;;0.93;0.60;;;;;;;22.58;54.72;101481.50;5036980;28;20036;-74
2021/08/10 00:30:34;;;;;;;0.95;0.75;;;;;;;22.58;54.66;101481.50;5036462;28;20034;-74
2021/08/10 00:33:00;;;;;;;1.10;0.80;;;;;;;22.60;54.59;101482.34;5035468;28;20021;-74
2021/08/10 00:35:25;;;;;;;0.90;0.73;;;;;;;22.58;54.70;101482.38;5019122;28;20034;-74
2021/08/10 00:37:51;;;;;;;1.10;0.60;;;;;;;22.54;54.71;101469.25;5036440;28;20029;-74
2021/08/10 00:40:20;;;;;;;1.92;0.90;;;;;;;22.54;54.77;101470.13;5018575;28;20036;-74
2021/08/10 00:42:46;;;;;;;1.95;0.90;;;;;;;22.58;54.55;101473.59;5036593;28;20029;-74
2021/08/10 00:45:11;;;;;;;1.20;0.90;;;;;;;22.56;54.79;101470.97;5035200;28;20188;-74
2021/08/10 00:47:36;;;;;;;1.58;1.27;;;;;;;22.58;54.82;101463.06;5035197;28;20033;-74
2021/08/10 00:50:03;;;;;;;2.05;0.80;;;;;;;22.55;54.66;101463.97;5034889;28;20091;-74
2021/08/10 00:52:28;;;;;;;2.65;0.98;;;;;;;22.57;54.72;101464.81;5018740;28;20113;-74
2021/08/10 00:54:54;;;;;;;1.17;0.90;;;;;;;22.55;54.87;101457.81;5035204;28;20472;-74
2021/08/10 00:57:19;;;;;;;1.50;0.80;;;;;;;22.57;54.65;101463.94;5036175;28;20033;-74
2021/08/10 00:59:44;;;;;;;2.15;1.25;;;;;;;22.57;54.73;101466.59;5018370;28;20487;-74
2021/08/10 01:02:10;;;;;;;0.85;0.60;;;;;;;22.53;54.99;101451.69;5034844;28;20120;-74
2021/08/10 01:04:37;;;;;;;1.55;0.85;;;;;;;22.57;54.72;101456.03;5036235;28;20036;-74
2021/08/10 01:07:31;;;;;;;1.15;0.80;;;;;;;22.56;54.95;101451.66;5035972;28;20028;-74
2021/08/10 01:10:11;;;;;;;1.40;1.02;;;;;;;22.56;54.82;101455.16;5033494;28;20032;-74
2021/08/10 01:12:42;;;;;;;3.30;0.77;;;;;;;22.56;54.80;101456.94;5036223;28;20022;-74
2021/08/10 01:15:20;;;;;;;1.75;0.60;;;;;;;22.57;54.78;101461.31;5034674;28;20061;-74
2021/08/10 01:17:48;;;;;;;3.13;1.02;;;;;;;22.56;54.90;101462.19;5034471;28;20029;-74
2021/08/10 01:20:51;;;;;;;1.45;0.90;;;;;;;22.55;54.87;101461.31;5034395;28;20631;-74
2021/08/10 01:23:24;;;;;;;1.05;0.60;;;;;;;22.54;54.67;101463.97;5034557;28;20095;-75
2021/08/10 01:26:22;;;;;;;1.77;0.88;;;;;;;22.53;54.81;101462.22;5034480;28;20029;-75
2021/08/10 01:29:32;;;;;;;1.92;0.90;;;;;;;22.53;54.93;101472.78;5035613;28;20080;-75
2021/08/10 01:31:59;;;;;;;1.52;0.80;;;;;;;22.55;54.92;101481.53;4997330;28;20037;-75
2021/08/10 01:34:31;;;;;;;0.82;0.70;;;;;;;22.54;54.90;101474.53;5012713;28;20498;-75
2021/08/10 01:37:01;;;;;;;1.25;0.80;;;;;;;22.51;54.81;101464.00;5035522;28;20117;-75
2021/08/10 01:39:29;;;;;;;1.50;0.80;;;;;;;22.54;54.79;101469.25;5034155;28;20112;-75
2021/08/10 01:41:56;;;;;;;1.05;0.60;;;;;;;22.49;54.88;101461.38;5035500;28;20112;-75
2021/08/10 01:44:26;;;;;;;1.83;0.75;;;;;;;22.51;54.90;101462.25;5035048;28;20076;-75
2021/08/10 01:46:57;;;;;;;1.80;0.80;;;;;;;22.52;54.92;101469.25;5001951;28;20037;-75
2021/08/10 01:49:24;;;;;;;1.25;0.85;;;;;;;22.53;55.00;101465.75;5017806;28;20022;-74
2021/08/10 01:51:51;;;;;;;1.98;0.82;;;;;;;22.53;54.84;101464.88;5017434;28;20456;-74
2021/08/10 01:54:17;;;;;;;1.55;0.80;;;;;;;22.52;55.07;101463.13;5035142;28;20021;-74
2021/08/10 01:56:43;;;;;;;1.17;0.80;;;;;;;22.51;54.87;101469.28;5033734;28;20547;-74
2021/08/10 01:59:09;;;;;;;1.17;0.73;;;;;;;22.50;54.87;101456.97;5017211;28;20128;-74
2021/08/10 02:01:38;;;;;;;1.23;0.82;;;;;;;22.49;54.83;101456.13;5033557;28;20052;-74
2021/08/10 02:04:05;;;;;;;0.60;0.50;;;;;;;22.51;54.87;101458.72;5035189;28;20033;-74
2021/08/10 02:06:31;;;;;;;1.23;0.65;;;;;;;22.52;54.80;101463.13;5017005;28;20104;-74
2021/08/10 02:08:59;;;;;;;1.40;0.70;;;;;;;22.50;54.97;101454.34;5034814;28;20018;-74
2021/08/10 02:11:26;;;;;;;1.13;0.73;;;;;;;22.51;54.93;101454.34;5034599;28;20046;-74
2021/08/10 02:13:52;;;;;;;0.93;0.60;;;;;;;22.54;54.92;101458.69;5033364;28;20025;-74
2021/08/10 02:16:19;;;;;;;0.80;0.57;;;;;;;22.54;54.91;101461.34;5033362;28;20025;-74
2021/08/10 02:18:48;;;;;;;1.00;0.70;;;;;;;22.53;54.90;101463.09;5033369;28;20083;-74
2021/08/10 02:21:44;;;;;;;0.73;0.52;;;;;;;22.51;55.02;101466.63;5034464;28;20448;-74
2021/08/10 02:24:27;;;;;;;1.30;0.80;;;;;;;22.51;54.95;101464.88;5029706;28;20037;-74
2021/08/10 02:27:00;;;;;;;1.95;0.73;;;;;;;22.52;54.89;101468.38;5033246;28;20052;-75
2021/08/10 02:29:30;;;;;;;1.40;1.03;;;;;;;22.51;55.02;101467.50;5033074;28;20357;-75
2021/08/10 02:31:56;;;;;;;1.13;0.75;;;;;;;22.48;55.04;101454.38;5034534;28;20120;-75
2021/08/10 02:34:22;;;;;;;1.10;0.60;;;;;;;22.50;54.96;101460.50;5033546;28;20464;-75
2021/08/10 02:36:54;;;;;;;1.20;0.70;;;;;;;22.50;55.00;101462.25;5016737;28;20040;-76
2021/08/10 02:39:21;;;;;;;0.70;0.60;;;;;;;22.51;54.96;101459.59;5032984;28;20049;-75
2021/08/10 02:41:48;;;;;;;1.48;0.98;;;;;;;22.50;55.06;101460.50;5034379;28;20417;-75
2021/08/10 02:44:14;;;;;;;1.17;0.70;;;;;;;22.51;55.07;101467.50;5034346;28;20040;-75
2021/08/10 02:46:40;;;;;;;1.02;0.65;;;;;;;22.51;55.00;101467.50;5033198;28;20036;-75
2021/08/10 02:49:10;;;;;;;1.38;0.82;;;;;;;22.46;55.13;101458.78;5034366;28;20033;-75
2021/08/10 02:51:36;;;;;;;1.25;0.85;;;;;;;22.50;54.88;101456.97;5032772;28;20033;-75
2021/08/10 02:54:03;;;;;;;1.88;0.65;;;;;;;22.51;55.08;101464.00;5033948;28;20110;-75
2021/08/10 02:56:33;;;;;;;1.80;0.75;;;;;;;22.46;55.10;101461.41;5032625;28;20029;-75
2021/08/10 02:59:03;;;;;;;1.40;0.63;;;;;;;22.50;55.11;101457.84;5033861;28;20475;-74
2021/08/10 03:02:00;;;;;;;0.57;0.57;;;;;;;22.50;55.02;101465.75;5033841;28;20026;-74
2021/08/10 03:04:30;;;;;;;0.70;0.50;;;;;;;22.51;55.06;101464.00;5033819;28;20032;-74
2021/08/10 03:06:56;;;;;;;1.90;0.90;;;;;;;22.50;55.29;101464.88;5032510;28;20024;-74
2021/08/10 03:09:23;;;;;;;0.80;0.65;;;;;;;22.49;55.23;101463.13;5032553;28;20022;-74
2021/08/10 03:11:51;;;;;;;1.20;0.80;;;;;;;22.48;54.95;101459.63;5033839;28;20399;-74
2021/08/10 03:14:16;;;;;;;1.17;0.80;;;;;;;22.49;55.00;101461.38;5016004;28;20025;-75
2021/08/10 03:16:43;;;;;;;1.05;0.60;;;;;;;22.48;55.14;101458.75;5032699;28;20412;-75
2021/08/10 03:19:12;;;;;;;1.60;0.82;;;;;;;22.50;55.02;101462.25;5032676;28;20026;-74
2021/08/10 03:21:41;;;;;;;0.88;0.60;;;;;;;22.46;54.98;101456.13;5032443;28;20079;-73
2021/08/10 03:24:08;;;;;;;2.05;1.08;;;;;;;22.45;55.04;101457.94;5033723;28;20364;-74
2021/08/10 03:26:34;;;;;;;1.20;0.80;;;;;;;22.49;55.09;101465.78;5033603;28;20029;-74
2021/08/10 03:29:00;;;;;;;1.20;0.88;;;;;;;22.46;55.10;101462.28;5032355;28;20084;-74
2021/08/10 03:31:27;;;;;;;1.48;0.82;;;;;;;22.46;55.11;101459.66;5032448;28;20033;-73
2021/08/10 03:33:53;;;;;;;1.40;0.90;;;;;;;22.40;55.38;101451.81;5015320;28;20056;-74
2021/08/10 03:36:19;;;;;;;0.82;0.60;;;;;;;22.45;55.10;101457.06;5015940;28;20399;-73
2021/08/10 03:38:45;;;;;;;1.08;0.70;;;;;;;22.46;54.99;101462.28;5033379;28;20033;-74
2021/08/10 03:41:11;;;;;;;1.67;0.88;;;;;;;22.49;55.25;101473.69;5016092;28;20379;-74
2021/08/10 03:43:38;;;;;;;1.20;0.93;;;;;;;22.50;55.19;101464.88;5032557;28;20055;-74
2021/08/10 03:46:05;;;;;;;1.38;0.85;;;;;;;22.49;55.06;101465.78;5033408;28;20379;-74
2021/08/10 03:48:43;;;;;;;1.23;0.95;;;;;;;22.48;55.11;101458.75;5045118;28;20044;-73
2021/08/10 03:51:10;;;;;;;1.30;0.70;;;;;;;22.46;55.17;101464.91;5033499;28;20423;-73
2021/08/10 03:53:36;;;;;;;1.40;0.90;;;;;;;22.49;55.02;101465.78;5033007;28;20468;-74
2021/08/10 03:56:02;;;;;;;1.77;0.80;;;;;;;22.49;55.07;101476.31;5032324;28;20036;-74
2021/08/10 03:58:32;;;;;;;1.70;0.80;;;;;;;22.45;54.97;101472.88;5033684;28;20022;-74
2021/08/10 04:01:01;;;;;;;1.25;1.13;;;;;;;22.43;55.14;101464.97;5033872;28;20017;-75
2021/08/10 04:03:31;;;;;;;1.90;1.05;;;;;;;22.43;55.00;101462.34;5033921;28;20024;-75
2021/08/10 04:05:59;;;;;;;1.15;0.80;;;;;;;22.43;54.96;101464.97;5033640;28;20041;-75
2021/08/10 04:08:25;;;;;;;1.02;0.68;;;;;;;22.44;55.05;101466.72;5031998;28;20061;-74
2021/08/10 04:10:50;;;;;;;1.80;1.15;;;;;;;22.45;55.03;101475.50;5031884;28;20175;-73
2021/08/10 04:13:16;;;;;;;3.40;0.90;;;;;;;22.43;54.99;101466.75;5033263;28;20061;-74
2021/08/10 04:15:44;;;;;;;1.60;0.73;;;;;;;22.41;54.92;101472.03;5033302;28;20038;-74
2021/08/10 04:18:13;;;;;;;1.23;0.90;;;;;;;22.43;55.13;101480.78;5032015;28;20040;-74
2021/08/10 04:20:39;;;;;;;1.83;0.80;;;;;;;22.45;54.99;101473.75;5033200;28;20422;-74
2021/08/10 04:23:04;;;;;;;2.83;0.80;;;;;;;22.41;55.07;101474.66;5033413;28;20108;-74
2021/08/10 04:25:30;;;;;;;1.63;1.00;;;;;;;22.43;54.99;101472.00;5039975;28;20112;-73
2021/08/10 04:27:55;;;;;;;1.98;1.00;;;;;;;22.44;55.05;101481.66;5041227;28;20025;-74
2021/08/10 04:30:21;;;;;;;0.95;0.70;;;;;;;22.43;55.10;101482.56;5032485;28;20033;-74
2021/08/10 04:32:46;;;;;;;1.35;0.80;;;;;;;22.44;55.18;101479.03;5031973;28;20380;-74
2021/08/10 04:35:12;;;;;;;1.13;0.63;;;;;;;22.44;55.10;101479.91;5033013;28;20038;-74
2021/08/10 04:37:37;;;;;;;1.27;0.75;;;;;;;22.41;55.13;101477.28;5032881;28;20120;-74
2021/08/10 04:40:03;;;;;;;1.65;1.05;;;;;;;22.43;55.10;101486.06;5031775;28;20033;-73
2021/08/10 04:42:29;;;;;;;1.02;0.75;;;;;;;22.44;54.93;101486.94;5032928;28;20048;-75
2021/08/10 04:44:54;;;;;;;0.77;0.70;;;;;;;22.46;55.19;101482.50;5032779;28;20041;-75
2021/08/10 04:47:19;;;;;;;0.77;0.60;;;;;;;22.44;55.01;101476.41;5036303;28;20084;-75
2021/08/10 04:49:45;;;;;;;0.85;0.60;;;;;;;22.38;55.15;101464.16;5036300;28;20026;-75
2021/08/10 04:52:10;;;;;;;1.17;0.95;;;;;;;22.42;55.14;101478.16;5036465;28;20079;-75
2021/08/10 04:54:36;;;;;;;1.10;0.70;;;;;;;22.44;55.02;101485.19;5018420;28;20041;-75
2021/08/10 04:57:01;;;;;;;0.73;0.68;;;;;;;22.45;55.24;101484.28;5035155;28;20034;-73
2021/08/10 04:59:27;;;;;;;1.08;0.65;;;;;;;22.41;55.11;101474.66;5035103;28;20049;-74
2021/08/10 05:01:53;;;;;;;1.35;0.88;;;;;;;22.44;55.12;101481.66;5002128;28;20025;-74
2021/08/10 05:04:18;;;;;;;1.10;0.80;;;;;;;22.46;55.18;101483.38;5018414;28;20025;-74
2021/08/10 05:06:44;;;;;;;1.38;0.80;;;;;;;22.41;55.21;101464.13;5034740;28;20434;-74
2021/08/10 05:09:09;;;;;;;1.83;0.90;;;;;;;22.45;55.15;101483.41;5034875;28;20033;-75
2021/08/10 05:11:35;;;;;;;1.70;1.10;;;;;;;22.48;55.16;101483.34;5035883;28;20045;-75
2021/08/10 05:14:00;;;;;;;0.73;0.63;;;;;;;22.46;55.31;101478.09;5035933;28;20544;-75
2021/08/10 05:16:26;;;;;;;0.88;0.60;;;;;;;22.43;55.18;101482.56;5035927;28;20060;-75
2021/08/10 05:18:51;;;;;;;0.98;0.65;;;;;;;22.48;54.91;101493.03;5034530;28;20033;-75
2021/08/10 05:21:19;;;;;;;1.33;0.80;;;;;;;22.45;55.18;101492.19;5018127;28;20025;-75
2021/08/10 05:23:44;;;;;;;1.23;0.80;;;;;;;22.44;55.19;101492.22;5035791;28;20037;-75
2021/08/10 05:26:10;;;;;;;1.73;0.90;;;;;;;22.43;55.16;101493.97;5034503;28;20048;-75
2021/08/10 05:28:35;;;;;;;1.70;1.27;;;;;;;22.43;55.31;101488.69;5035728;28;20435;-75
2021/08/10 05:31:00;;;;;;;1.00;0.70;;;;;;;22.38;55.21;101490.50;5001611;28;20022;-75
2021/08/10 05:33:26;;;;;;;1.63;1.35;;;;;;;22.45;55.17;101502.75;5034539;28;20083;-75
2021/08/10 05:35:51;;;;;;;1.88;0.70;;;;;;;22.44;55.17;101503.63;5034347;28;20056;-75
2021/08/10 05:38:16;;;;;;;1.20;1.00;;;;;;;22.45;55.09;101507.13;5035361;28;20028;-75
2021/08/10 05:40:42;;;;;;;1.15;0.68;;;;;;;22.43;55.28;101504.50;5017715;28;20460;-75
2021/08/10 05:43:07;;;;;;;1.42;0.80;;;;;;;22.45;55.18;101513.28;5017581;28;20123;-75
2021/08/10 05:45:32;;;;;;;1.17;0.70;;;;;;;22.42;55.21;101513.31;5035355;28;20053;-75
2021/08/10 05:47:58;;;;;;;1.15;0.75;;;;;;;22.41;55.14;101514.19;5034042;28;20060;-75
2021/08/10 05:50:23;;;;;;;1.17;0.60;;;;;;;22.45;55.11;101509.78;5033890;28;20033;-75
2021/08/10 05:52:49;;;;;;;1.02;0.68;;;;;;;22.42;55.09;101508.03;5017344;28;20033;-75
2021/08/10 05:55:15;;;;;;;1.63;1.00;;;;;;;22.45;55.16;101512.41;5000904;28;20037;-75
2021/08/10 05:57:40;;;;;;;2.45;1.17;;;;;;;22.42;55.27;101512.44;5035090;28;20033;-75
2021/08/10 06:00:06;;;;;;;0.90;0.70;;;;;;;22.46;55.09;101515.00;5017353;28;20033;-75
2021/08/10 06:02:34;;;;;;;1.17;0.88;;;;;;;22.49;55.06;101523.75;5033698;28;20030;-75
2021/08/10 06:04:59;;;;;;;1.20;1.10;;;;;;;22.52;55.11;101523.75;5033830;28;20029;-75
2021/08/10 06:07:25;;;;;;;1.88;0.82;;;;;;;22.58;54.69;101516.66;5000668;28;20139;-75
2021/08/10 06:09:50;;;;;;;2.13;0.98;;;;;;;22.60;54.74;101513.97;5033658;28;20041;-75
2021/08/10 06:12:15;;;;;;;1.55;0.93;;;;;;;22.60;54.76;101524.50;5033894;28;20029;-75
2021/08/10 06:14:41;;;;;;;1.90;1.13;;;;;;;22.55;54.91;101524.59;5034757;28;20392;-75
2021/08/10 06:17:06;;;;;;;2.95;1.60;;;;;;;22.56;54.99;101530.72;5017051;28;20494;-75
2021/08/10 06:19:31;;;;;;;2.10;0.98;;;;;;;22.51;55.04;101511.44;5016805;28;20026;-75
2021/08/10 06:21:57;;;;;;;1.77;0.93;;;;;;;22.53;55.11;101526.38;5016835;28;20041;-75
2021/08/10 06:24:23;;;;;;;1.35;0.82;;;;;;;22.56;54.85;101521.06;5033301;28;20032;-75
2021/08/10 06:26:48;;;;;;;1.77;0.95;;;;;;;22.63;54.96;101521.84;5033268;28;20040;-75
2021/08/10 06:29:13;;;;;;;1.30;0.93;;;;;;;22.65;54.83;101520.94;5034499;28;20029;-75
2021/08/10 06:31:39;;;;;;;1.13;0.80;;;;;;;22.60;55.12;101522.75;5033356;28;20045;-75
2021/08/10 06:34:04;;;;;;;1.45;0.77;;;;;;;22.57;55.03;101524.56;5033315;28;20042;-75
2021/08/10 06:36:30;;;;;;;0.95;0.60;;;;;;;22.57;55.16;101520.19;5033310;28;20029;-73
2021/08/10 06:38:55;;;;;;;1.27;0.90;;;;;;;22.57;54.99;101524.56;5034182;28;20021;-73
2021/08/10 06:41:20;;;;;;;1.65;0.90;;;;;;;22.57;55.15;101529.84;5016381;28;20025;-74
2021/08/10 06:43:45;;;;;;;1.52;0.80;;;;;;;22.60;55.20;101528.03;5032984;28;20060;-74
2021/08/10 06:46:11;;;;;;;1.40;1.08;;;;;;;22.62;54.89;101526.25;5016548;28;20033;-75
2021/08/10 06:48:39;;;;;;;3.22;1.25;;;;;;;22.70;54.81;101534.09;5016557;28;20034;-75
2021/08/10 06:51:04;;;;;;;1.52;0.85;;;;;;;22.79;54.58;101526.09;5016777;28;20056;-74
2021/08/10 06:53:30;;;;;;;1.00;0.60;;;;;;;22.83;54.58;101530.44;5034102;28;20472;-75
2021/08/10 06:55:55;;;;;;;1.38;1.00;;;;;;;22.84;54.65;101520.78;5033114;28;20029;-76
2021/08/10 06:58:21;;;;;;;1.05;0.82;;;;;;;22.89;54.24;101526.84;5033055;28;20497;-75
2021/08/10 07:00:46;;;;;;;1.73;0.80;;;;;;;22.96;54.52;101525.91;5016558;28;20048;-75
2021/08/10 07:03:11;;;;;;;1.35;0.77;;;;;;;23.01;54.15;101530.19;5016393;28;20065;-75
2021/08/10 07:05:37;;;;;;;1.50;0.90;;;;;;;23.03;54.24;101536.34;5016186;28;20029;-75
2021/08/10 07:08:03;;;;;;;1.83;1.10;;;;;;;23.11;54.15;101539.75;5031806;28;20041;-75
2021/08/10 07:10:28;;;;;;;0.60;0.50;;;;;;;23.05;54.13;101529.28;5015856;28;20041;-75
2021/08/10 07:12:53;;;;;;;1.05;0.70;;;;;;;22.98;54.51;101527.59;5032840;28;20041;-75
2021/08/10 07:15:19;;;;;;;1.83;0.90;;;;;;;23.06;54.37;101540.72;5032733;28;20476;-75
2021/08/10 07:17:44;;;;;;;1.88;0.88;;;;;;;22.97;54.62;101533.78;5032531;28;20029;-75
2021/08/10 07:20:10;;;;;;;1.65;0.90;;;;;;;22.90;54.86;101541.78;5032327;28;20037;-75
2021/08/10 07:22:36;;;;;;;1.67;1.02;;;;;;;22.86;55.01;101534.78;5016060;28;20033;-75
2021/08/10 07:25:04;;;;;;;1.08;0.80;;;;;;;22.81;54.89;101532.22;5016541;28;20026;-75
2021/08/10 07:27:29;;;;;;;1.20;0.85;;;;;;;22.79;55.08;101534.88;5036791;28;20041;-75
2021/08/10 07:29:55;;;;;;;1.30;0.88;;;;;;;22.79;55.12;101539.28;5036233;28;20037;-75
2021/08/10 07:32:20;;;;;;;1.63;0.90;;;;;;;22.78;55.16;101545.44;5036076;28;20067;-75
2021/08/10 07:34:45;;;;;;;1.02;0.73;;;;;;;22.75;55.17;101548.94;5035439;28;20476;-75
2021/08/10 07:37:11;;;;;;;1.00;0.85;;;;;;;22.77;55.33;101548.97;5017847;28;20390;-75
2021/08/10 07:39:39;;;;;;;1.52;0.70;;;;;;;22.61;55.25;101528.91;5001856;28;20026;-75
2021/08/10 07:42:08;;;;;;;1.60;0.98;;;;;;;22.66;55.20;101538.53;5036348;28;20040;-75
2021/08/10 07:44:34;;;;;;;1.98;1.00;;;;;;;22.66;55.41;101543.78;5002773;28;20068;-75
2021/08/10 07:46:59;;;;;;;1.15;0.68;;;;;;;22.73;55.23;101553.38;5016905;28;20034;-73
2021/08/10 07:49:24;;;;;;;1.70;1.10;;;;;;;22.71;55.33;101554.28;5035317;28;20053;-74
2021/08/10 07:51:50;;;;;;;1.80;1.25;;;;;;;22.70;55.20;101557.81;5017539;28;20036;-73
2021/08/10 07:54:15;;;;;;;1.17;0.80;;;;;;;22.68;55.43;101554.31;5017132;28;20030;-73
2021/08/10 07:56:44;;;;;;;1.88;1.30;;;;;;;22.68;55.33;101560.47;5017459;28;20067;-73
2021/08/10 07:59:09;;;;;;;1.63;0.93;;;;;;;22.71;55.32;101565.72;5034999;28;20033;-73
2021/08/10 08:01:37;;;;;;;1.83;0.80;;;;;;;22.64;55.26;101552.59;5035435;28;20033;-73
2021/08/10 08:04:03;;;;;;;1.65;0.93;;;;;;;22.70;55.28;101563.97;5001056;28;20030;-74
2021/08/10 08:06:28;;;;;;;1.85;0.90;;;;;;;22.63;55.44;101543.81;5033657;28;20450;-73
2021/08/10 08:08:56;;;;;;;1.63;0.80;;;;;;;22.66;55.54;101545.56;5000308;28;20035;-73
2021/08/10 08:11:22;;;;;;;1.08;0.82;;;;;;;22.69;55.65;101550.81;5016351;28;20536;-73
2021/08/10 08:13:47;;;;;;;1.52;1.00;;;;;;;22.68;55.19;101551.69;5015621;28;20073;-74
2021/08/10 08:16:12;;;;;;;1.35;0.90;;;;;;;22.66;55.33;101542.91;5031926;28;20025;-74
2021/08/10 08:18:38;;;;;;;1.25;1.00;;;;;;;22.67;55.42;101550.81;5015857;28;20534;-74
2021/08/10 08:21:03;;;;;;;2.30;1.10;;;;;;;22.66;55.41;101558.72;5035796;28;20361;-74
2021/08/10 08:23:29;;;;;;;1.48;0.90;;;;;;;22.62;55.30;101549.09;5002759;28;20072;-74
2021/08/10 08:25:55;;;;;;;1.55;1.10;;;;;;;22.63;55.38;101553.50;5036799;28;20029;-73
2021/08/10 08:28:21;;;;;;;1.42;0.93;;;;;;;22.63;55.42;101556.13;5036837;28;20021;-74
2021/08/10 08:30:46;;;;;;;1.58;1.02;;;;;;;22.64;55.49;101557.88;5036743;28;20112;-74
2021/08/10 08:33:12;;;;;;;0.88;0.70;;;;;;;22.74;55.17;101560.38;5036849;28;20116;-74
2021/08/10 08:35:38;;;;;;;1.70;1.15;;;;;;;22.72;55.27;101550.78;5019075;28;20525;-74
2021/08/10 08:38:08;;;;;;;2.38;1.00;;;;;;;22.78;55.01;101559.50;5036739;28;20025;-74
2021/08/10 08:40:38;;;;;;;1.75;1.20;;;;;;;22.79;55.08;101558.63;5036752;28;20021;-74
2021/08/10 08:43:04;;;;;;;2.65;0.88;;;;;;;22.76;55.54;101565.69;5036789;28;20030;-74
2021/08/10 08:45:30;;;;;;;2.17;0.98;;;;;;;22.73;55.22;101561.28;5036530;28;20027;-74
2021/08/10 08:47:57;;;;;;;1.20;0.82;;;;;;;22.71;55.26;101559.56;5018932;28;20387;-74
2021/08/10 08:50:23;;;;;;;1.02;0.80;;;;;;;22.72;55.37;101569.22;5018771;28;20037;-74
2021/08/10 08:52:53;;;;;;;1.90;0.98;;;;;;;22.68;55.40;101559.59;5036518;28;20052;-74
2021/08/10 08:55:20;;;;;;;0.73;0.60;;;;;;;22.67;55.46;101569.28;5035140;28;20116;-74
2021/08/10 08:57:46;;;;;;;1.33;0.90;;;;;;;22.66;55.49;101570.16;5018812;28;20033;-74
2021/08/10 09:00:14;;;;;;;1.52;0.82;;;;;;;22.70;55.40;101578.91;5035009;28;20087;-73
2021/08/10 09:02:41;;;;;;;1.92;1.23;;;;;;;22.77;54.93;101578.84;5035413;28;20112;-74
2021/08/10 09:05:07;;;;;;;1.20;0.80;;;;;;;22.77;55.28;101576.22;5036418;28;20032;-73
2021/08/10 09:07:33;;;;;;;1.85;1.15;;;;;;;22.77;55.29;101575.34;5035749;28;20021;-74
2021/08/10 09:10:13;;;;;;;2.25;1.10;;;;;;;22.78;55.20;101579.72;5018232;28;20060;-74
2021/08/10 09:12:53;;;;;;;2.55;1.20;;;;;;;22.78;55.33;101575.31;5034651;28;20052;-74
2021/08/10 09:15:44;;;;;;;1.13;0.82;;;;;;;22.79;54.98;101569.16;5034727;28;20025;-74
2021/08/10 09:18:14;;;;;;;1.30;0.70;;;;;;;22.82;54.97;101578.81;5034868;28;20536;-74
2021/08/10 09:20:41;;;;;;;1.98;0.75;;;;;;;22.76;55.22;101568.31;5035911;28;20432;-74
2021/08/10 09:23:06;;;;;;;1.52;1.20;;;;;;;22.85;55.14;101577.91;5035859;28;20026;-74
2021/08/10 09:25:34;;;;;;;1.48;0.95;;;;;;;22.85;54.69;101584.03;5034365;28;20028;-74
2021/08/10 09:28:17;;;;;;;1.40;0.90;;;;;;;22.85;55.08;101581.38;5034418;28;20468;-74
2021/08/10 09:30:43;;;;;;;2.50;1.25;;;;;;;22.87;55.16;101579.63;5033612;28;20033;-74
2021/08/10 09:33:08;;;;;;;1.15;0.80;;;;;;;22.85;55.07;101591.94;5017820;28;20037;-74
2021/08/10 09:35:36;;;;;;;2.00;1.17;;;;;;;22.82;55.11;101580.56;5034464;28;20040;-74
2021/08/10 09:38:07;;;;;;;1.40;1.08;;;;;;;22.83;55.04;101599.03;5035513;28;20025;-74
2021/08/10 09:40:46;;;;;;;1.90;1.02;;;;;;;22.83;55.15;101599.03;5035540;28;20032;-74
2021/08/10 09:43:24;;;;;;;1.80;1.30;;;;;;;22.86;55.00;101592.81;5035595;28;20029;-74
2021/08/10 09:46:02;;;;;;;1.60;0.70;;;;;;;22.88;55.04;101601.59;5035262;28;20025;-74
2021/08/10 09:48:28;;;;;;;1.52;0.77;;;;;;;22.88;54.97;101594.53;5035290;28;20033;-74
2021/08/10 09:51:13;;;;;;;1.75;1.17;;;;;;;22.87;54.92;101594.56;5033888;28;20029;-74
2021/08/10 09:53:41;;;;;;;3.10;1.10;;;;;;;22.87;55.08;101602.47;5035252;28;20033;-74
2021/08/10 09:56:07;;;;;;;1.40;0.80;;;;;;;22.88;54.96;101599.81;5035086;28;20078;-74
2021/08/10 09:58:56;;;;;;;1.33;1.02;;;;;;;22.92;54.86;101606.81;5017643;28;20112;-74
2021/08/10 10:01:36;;;;;;;1.42;0.88;;;;;;;22.90;54.88;101607.72;5035138;28;20033;-74
2021/08/10 10:04:08;;;;;;;1.05;0.80;;;;;;;22.89;55.00;101619.16;5033739;28;20468;-73
2021/08/10 10:06:34;;;;;;;2.83;0.90;;;;;;;22.82;54.98;101594.63;5033563;28;20083;-74
2021/08/10 10:09:00;;;;;;;1.10;0.80;;;;;;;22.87;55.15;101605.13;5033689;28;20029;-74
2021/08/10 10:11:26;;;;;;;2.17;1.38;;;;;;;22.83;55.04;101606.06;5034422;28;20118;-74
2021/08/10 10:13:52;;;;;;;2.75;1.30;;;;;;;22.86;55.00;101606.88;5017202;28;20555;-74
2021/08/10 10:16:17;;;;;;;1.13;0.70;;;;;;;22.89;55.03;101609.47;5033619;28;20112;-74
2021/08/10 10:18:43;;;;;;;1.27;0.77;;;;;;;22.87;54.82;101605.97;5016945;28;20025;-74
2021/08/10 10:21:11;;;;;;;1.83;0.95;;;;;;;22.86;54.91;101604.25;5034587;28;20056;-74
2021/08/10 10:23:37;;;;;;;1.77;0.95;;;;;;;22.90;54.72;101611.22;5016876;28;20120;-74
2021/08/10 10:26:04;;;;;;;1.40;0.90;;;;;;;22.91;54.73;101610.34;5033388;28;20108;-74
2021/08/10 10:28:31;;;;;;;1.23;0.98;;;;;;;22.92;54.91;101608.59;5033160;28;20025;-74
2021/08/10 10:30:59;;;;;;;1.30;0.90;;;;;;;22.88;54.88;101607.72;5033665;28;20025;-73
2021/08/10 10:33:49;;;;;;;1.88;1.00;;;;;;;22.92;54.97;101611.22;5034444;28;20029;-74
2021/08/10 10:36:14;;;;;;;1.35;0.88;;;;;;;22.93;54.66;101612.97;5032990;28;20060;-74
2021/08/10 10:38:43;;;;;;;1.83;0.90;;;;;;;22.92;54.82;101612.09;5034322;28;20037;-74
2021/08/10 10:41:09;;;;;;;1.35;0.95;;;;;;;22.94;54.76;101606.81;5033233;28;20028;-74
2021/08/10 10:43:36;;;;;;;1.58;0.95;;;;;;;22.91;54.74;101598.91;5032932;28;20025;-74
2021/08/10 10:46:27;;;;;;;1.65;1.02;;;;;;;22.94;54.64;101607.69;5034243;28;20041;-74
2021/08/10 10:48:54;;;;;;;2.00;1.00;;;;;;;22.93;54.58;101612.97;5032729;28;20388;-74
2021/08/10 10:51:28;;;;;;;2.75;1.25;;;;;;;22.94;54.66;101617.34;5034305;28;20439;-73
2021/08/10 10:54:27;;;;;;;1.35;0.93;;;;;;;22.96;54.77;101616.47;5032996;28;20029;-73
2021/08/10 10:56:55;;;;;;;1.85;1.10;;;;;;;22.96;54.62;101615.59;5033981;28;20025;-73
2021/08/10 10:59:28;;;;;;;1.90;1.00;;;;;;;22.97;54.63;101619.97;5032717;28;20464;-74
2021/08/10 11:02:18;;;;;;;1.63;1.15;;;;;;;22.89;54.74;101606.84;5034040;28;20036;-73
2021/08/10 11:05:08;;;;;;;2.97;1.95;;;;;;;22.97;54.70;101614.69;5030763;28;20029;-74
2021/08/10 11:07:39;;;;;;;1.67;0.80;;;;;;;22.95;54.60;101621.75;5033837;28;20484;-73
2021/08/10 11:10:31;;;;;;;1.45;0.85;;;;;;;22.95;54.65;101614.72;5016165;28;20391;-74
2021/08/10 11:12:57;;;;;;;1.40;0.90;;;;;;;22.96;54.63;101624.38;5032317;28;20077;-74
2021/08/10 11:15:45;;;;;;;1.40;0.95;;;;;;;22.97;54.65;101625.25;5032598;28;20117;-74
2021/08/10 11:18:10;;;;;;;1.58;0.90;;;;;;;22.98;54.49;101622.56;5033758;28;20029;-74
2021/08/10 11:20:39;;;;;;;1.67;1.42;;;;;;;22.98;54.57;101616.44;5033864;28;20026;-74
2021/08/10 11:23:16;;;;;;;1.13;0.75;;;;;;;22.94;54.80;101610.31;5034003;28;20036;-74
2021/08/10 11:26:09;;;;;;;1.58;1.05;;;;;;;22.88;54.68;101602.47;5034168;28;20053;-74
2021/08/10 11:28:36;;;;;;;1.80;1.02;;;;;;;22.92;54.61;101606.81;5006823;28;20049;-74
2021/08/10 11:31:07;;;;;;;2.60;1.10;;;;;;;23.00;54.76;101619.91;5035162;28;20087;-74